Lloydminister, Canada
Current Conditions -  °F | °C
As of 9:00 PM on Saturday 20 Dec 2014 (Local Time) from CYLL Reporting Station
Moderate Fog Moderate Fog  
Wind Chill:   Ceiling: 200
Heat Index: 19°   Visibility: 0.25mi
Dew Point: 18°   Wind: 8mph
Humidity: 93%   Direction: 120°ESE
Pressure: 29.53"   Gusts: NA
Location:  53.32°N, 110.07°W
Report Text: CYLL 210400Z 12007KT 1/4SM FZFG VV002 M07/M08 A2953 RMK FG8 LAST STFD OBS/NEXT 211400 UTC SLP042
Loading
Personal Weather Stations






























Interactive Weather Map New forecast layout! Learn more

10-Day Weather Forecast

Advertisements
Track Severe Weather on mobile